METAR & TAF Report
Available data for CYAM from the past 6 hours
SAULT STE MARIE, ON
Metar
CYAM 272200Z 30012KT 6SM -RA BR SCT032 OVC040 OVC045 01/00 A2993 RMK CF3SC5SC1 SC TR SLP146

22:00 UTC

Wind: 300° 12kt

Visibility: 6 SM

Sky: SCT 3200 ft

Temp: 1 deg C / 33.8 deg F

Dewpoint: 0 deg C / 32 deg F

Pressure: 29.93 inHg

TAF
TAF AMD CYAM 272108Z 2721/2808 31010KT 6SM BR FEW006 OVC030 TEMPO 2721/2803 3SM -RA -DZ BR BKN006 OVC030 PROB30 2721/2803 BKN004 OVC030 FM280300 30008KT 3SM BR BKN008 OVC020 FM280600 30005KT 2SM BR SCT020 PROB30 2806/2808 3/4SM BR RMK NXT FCST BY 280200Z
NOTAM

Click here for NOTAMs.